sensor_id;sensor_type;location;lat;lon;timestamp;P1;durP1;ratioP1;P2;durP2;ratioP2
11677;SDS011;5895;41.950;24.372;2022-12-18T00:01:12;8.43;;;5.80;;
11677;SDS011;5895;41.950;24.372;2022-12-18T00:03:42;14.88;;;7.55;;
11677;SDS011;5895;41.950;24.372;2022-12-18T00:06:10;8.68;;;6.32;;
11677;SDS011;5895;41.950;24.372;2022-12-18T00:08:40;9.05;;;6.53;;
11677;SDS011;5895;41.950;24.372;2022-12-18T00:11:10;9.35;;;6.07;;
11677;SDS011;5895;41.950;24.372;2022-12-18T00:13:39;8.82;;;6.57;;
11677;SDS011;5895;41.950;24.372;2022-12-18T00:16:10;12.18;;;5.55;;
11677;SDS011;5895;41.950;24.372;2022-12-18T00:18:39;7.70;;;4.65;;
11677;SDS011;5895;41.950;24.372;2022-12-18T00:21:08;6.85;;;4.32;;
11677;SDS011;5895;41.950;24.372;2022-12-18T00:23:37;7.00;;;3.92;;
11677;SDS011;5895;41.950;24.372;2022-12-18T00:26:07;4.93;;;3.75;;
11677;SDS011;5895;41.950;24.372;2022-12-18T00:28:37;6.30;;;3.38;;
11677;SDS011;5895;41.950;24.372;2022-12-18T00:31:05;9.38;;;3.85;;
11677;SDS011;5895;41.950;24.372;2022-12-18T00:33:34;8.00;;;5.72;;
11677;SDS011;5895;41.950;24.372;2022-12-18T00:36:02;12.07;;;5.60;;
11677;SDS011;5895;41.950;24.372;2022-12-18T00:38:30;5.32;;;4.78;;
11677;SDS011;5895;41.950;24.372;2022-12-18T00:40:58;8.43;;;5.50;;
11677;SDS011;5895;41.950;24.372;2022-12-18T00:43:27;16.92;;;8.80;;
11677;SDS011;5895;41.950;24.372;2022-12-18T00:45:54;11.82;;;8.43;;
11677;SDS011;5895;41.950;24.372;2022-12-18T00:48:21;9.02;;;7.40;;
11677;SDS011;5895;41.950;24.372;2022-12-18T00:50:49;8.10;;;6.07;;
11677;SDS011;5895;41.950;24.372;2022-12-18T00:53:17;10.00;;;6.95;;
11677;SDS011;5895;41.950;24.372;2022-12-18T00:55:45;10.00;;;6.57;;
11677;SDS011;5895;41.950;24.372;2022-12-18T00:58:13;7.15;;;5.28;;
11677;SDS011;5895;41.950;24.372;2022-12-18T01:00:43;6.22;;;5.60;;
11677;SDS011;5895;41.950;24.372;2022-12-18T01:03:12;9.25;;;6.45;;
11677;SDS011;5895;41.950;24.372;2022-12-18T01:05:41;9.38;;;7.15;;
11677;SDS011;5895;41.950;24.372;2022-12-18T01:08:08;8.35;;;6.32;;
11677;SDS011;5895;41.950;24.372;2022-12-18T01:10:36;8.13;;;5.50;;
11677;SDS011;5895;41.950;24.372;2022-12-18T01:13:06;8.63;;;5.05;;
11677;SDS011;5895;41.950;24.372;2022-12-18T01:15:34;8.55;;;6.20;;
11677;SDS011;5895;41.950;24.372;2022-12-18T01:18:03;10.50;;;5.60;;
11677;SDS011;5895;41.950;24.372;2022-12-18T01:20:31;7.88;;;5.65;;
11677;SDS011;5895;41.950;24.372;2022-12-18T01:22:58;8.25;;;6.53;;
11677;SDS011;5895;41.950;24.372;2022-12-18T01:25:25;9.13;;;6.13;;
11677;SDS011;5895;41.950;24.372;2022-12-18T01:27:53;5.80;;;4.90;;
11677;SDS011;5895;41.950;24.372;2022-12-18T01:30:21;6.35;;;4.18;;
11677;SDS011;5895;41.950;24.372;2022-12-18T01:32:48;7.70;;;4.20;;
11677;SDS011;5895;41.950;24.372;2022-12-18T01:35:17;5.07;;;3.75;;
11677;SDS011;5895;41.950;24.372;2022-12-18T01:37:45;6.45;;;3.55;;
11677;SDS011;5895;41.950;24.372;2022-12-18T01:40:12;4.40;;;3.13;;
11677;SDS011;5895;41.950;24.372;2022-12-18T01:42:40;3.97;;;2.83;;
11677;SDS011;5895;41.950;24.372;2022-12-18T01:45:21;5.05;;;3.35;;
11677;SDS011;5895;41.950;24.372;2022-12-18T01:47:51;4.38;;;3.00;;
11677;SDS011;5895;41.950;24.372;2022-12-18T01:50:23;4.45;;;2.60;;
11677;SDS011;5895;41.950;24.372;2022-12-18T01:52:53;4.13;;;3.10;;
11677;SDS011;5895;41.950;24.372;2022-12-18T01:55:25;6.07;;;3.47;;
11677;SDS011;5895;41.950;24.372;2022-12-18T01:57:55;7.45;;;3.20;;
11677;SDS011;5895;41.950;24.372;2022-12-18T02:00:25;5.93;;;3.10;;
11677;SDS011;5895;41.950;24.372;2022-12-18T02:02:54;6.15;;;3.22;;
11677;SDS011;5895;41.950;24.372;2022-12-18T02:05:25;4.88;;;2.92;;
11677;SDS011;5895;41.950;24.372;2022-12-18T02:08:05;7.57;;;3.85;;
11677;SDS011;5895;41.950;24.372;2022-12-18T02:10:40;7.20;;;4.72;;
11677;SDS011;5895;41.950;24.372;2022-12-18T02:13:14;3.95;;;2.72;;
11677;SDS011;5895;41.950;24.372;2022-12-18T02:15:49;5.13;;;2.97;;
11677;SDS011;5895;41.950;24.372;2022-12-18T02:18:26;7.72;;;4.10;;
11677;SDS011;5895;41.950;24.372;2022-12-18T02:21:00;6.47;;;3.20;;
11677;SDS011;5895;41.950;24.372;2022-12-18T02:23:47;4.05;;;3.17;;
11677;SDS011;5895;41.950;24.372;2022-12-18T02:26:21;8.75;;;6.45;;
11677;SDS011;5895;41.950;24.372;2022-12-18T02:28:56;9.18;;;6.00;;
11677;SDS011;5895;41.950;24.372;2022-12-18T02:31:29;5.72;;;5.13;;
11677;SDS011;5895;41.950;24.372;2022-12-18T02:34:03;8.82;;;4.32;;
11677;SDS011;5895;41.950;24.372;2022-12-18T02:36:33;6.35;;;4.05;;
11677;SDS011;5895;41.950;24.372;2022-12-18T02:39:05;5.93;;;4.65;;
11677;SDS011;5895;41.950;24.372;2022-12-18T02:41:39;4.35;;;3.95;;
11677;SDS011;5895;41.950;24.372;2022-12-18T02:44:07;4.18;;;3.78;;
11677;SDS011;5895;41.950;24.372;2022-12-18T02:46:37;4.38;;;3.97;;
11677;SDS011;5895;41.950;24.372;2022-12-18T02:49:12;10.82;;;4.10;;
11677;SDS011;5895;41.950;24.372;2022-12-18T02:51:52;7.32;;;3.47;;
11677;SDS011;5895;41.950;24.372;2022-12-18T02:54:32;4.03;;;3.63;;
11677;SDS011;5895;41.950;24.372;2022-12-18T02:57:13;6.82;;;4.25;;
11677;SDS011;5895;41.950;24.372;2022-12-18T02:59:47;15.25;;;4.47;;
11677;SDS011;5895;41.950;24.372;2022-12-18T03:02:23;5.32;;;3.53;;
11677;SDS011;5895;41.950;24.372;2022-12-18T03:04:55;5.38;;;3.50;;
11677;SDS011;5895;41.950;24.372;2022-12-18T03:07:30;4.55;;;3.30;;
11677;SDS011;5895;41.950;24.372;2022-12-18T03:10:03;13.05;;;4.88;;
11677;SDS011;5895;41.950;24.372;2022-12-18T03:12:37;6.53;;;4.20;;
11677;SDS011;5895;41.950;24.372;2022-12-18T03:15:09;11.10;;;4.45;;
11677;SDS011;5895;41.950;24.372;2022-12-18T03:17:40;26.17;;;4.63;;
11677;SDS011;5895;41.950;24.372;2022-12-18T03:20:12;10.02;;;4.10;;
11677;SDS011;5895;41.950;24.372;2022-12-18T03:22:44;5.03;;;3.72;;
11677;SDS011;5895;41.950;24.372;2022-12-18T03:25:16;11.55;;;4.38;;
11677;SDS011;5895;41.950;24.372;2022-12-18T03:27:48;30.17;;;5.28;;
11677;SDS011;5895;41.950;24.372;2022-12-18T03:30:18;27.65;;;4.18;;
11677;SDS011;5895;41.950;24.372;2022-12-18T03:32:47;19.67;;;3.80;;
11677;SDS011;5895;41.950;24.372;2022-12-18T03:35:18;5.72;;;3.90;;
11677;SDS011;5895;41.950;24.372;2022-12-18T03:37:49;7.28;;;4.00;;
11677;SDS011;5895;41.950;24.372;2022-12-18T03:40:17;25.48;;;3.95;;
11677;SDS011;5895;41.950;24.372;2022-12-18T03:42:48;29.75;;;5.95;;
11677;SDS011;5895;41.950;24.372;2022-12-18T03:45:20;14.73;;;5.32;;
11677;SDS011;5895;41.950;24.372;2022-12-18T03:47:55;14.07;;;5.22;;
11677;SDS011;5895;41.950;24.372;2022-12-18T03:50:32;9.55;;;5.93;;
11677;SDS011;5895;41.950;24.372;2022-12-18T03:53:09;13.70;;;5.55;;
11677;SDS011;5895;41.950;24.372;2022-12-18T03:55:46;7.65;;;4.60;;
11677;SDS011;5895;41.950;24.372;2022-12-18T03:58:19;7.47;;;4.53;;
11677;SDS011;5895;41.950;24.372;2022-12-18T04:00:50;5.63;;;4.22;;
11677;SDS011;5895;41.950;24.372;2022-12-18T04:03:22;8.57;;;4.50;;
11677;SDS011;5895;41.950;24.372;2022-12-18T04:05:51;4.47;;;3.88;;
11677;SDS011;5895;41.950;24.372;2022-12-18T04:08:20;21.08;;;5.13;;
11677;SDS011;5895;41.950;24.372;2022-12-18T04:10:49;11.57;;;4.95;;
11677;SDS011;5895;41.950;24.372;2022-12-18T04:13:23;6.85;;;4.93;;
11677;SDS011;5895;41.950;24.372;2022-12-18T04:15:51;12.60;;;4.43;;
11677;SDS011;5895;41.950;24.372;2022-12-18T04:18:18;6.88;;;4.38;;
11677;SDS011;5895;41.950;24.372;2022-12-18T04:20:46;6.97;;;4.50;;
11677;SDS011;5895;41.950;24.372;2022-12-18T04:23:13;8.45;;;5.10;;
11677;SDS011;5895;41.950;24.372;2022-12-18T04:25:41;15.18;;;5.53;;
11677;SDS011;5895;41.950;24.372;2022-12-18T04:28:08;14.27;;;5.97;;
11677;SDS011;5895;41.950;24.372;2022-12-18T04:30:37;7.38;;;5.95;;
11677;SDS011;5895;41.950;24.372;2022-12-18T04:33:07;9.48;;;5.97;;
11677;SDS011;5895;41.950;24.372;2022-12-18T04:35:36;8.32;;;6.00;;
11677;SDS011;5895;41.950;24.372;2022-12-18T04:38:03;6.85;;;4.95;;
11677;SDS011;5895;41.950;24.372;2022-12-18T04:40:33;9.55;;;5.88;;
11677;SDS011;5895;41.950;24.372;2022-12-18T04:43:01;6.93;;;4.93;;
11677;SDS011;5895;41.950;24.372;2022-12-18T04:45:29;5.38;;;4.63;;
11677;SDS011;5895;41.950;24.372;2022-12-18T04:47:58;5.90;;;4.05;;
11677;SDS011;5895;41.950;24.372;2022-12-18T04:50:26;7.03;;;4.20;;
11677;SDS011;5895;41.950;24.372;2022-12-18T04:52:54;7.28;;;4.97;;
11677;SDS011;5895;41.950;24.372;2022-12-18T04:55:21;4.72;;;4.25;;
11677;SDS011;5895;41.950;24.372;2022-12-18T04:57:49;6.07;;;3.97;;
11677;SDS011;5895;41.950;24.372;2022-12-18T05:00:17;9.63;;;5.93;;
11677;SDS011;5895;41.950;24.372;2022-12-18T05:02:45;17.17;;;5.95;;
11677;SDS011;5895;41.950;24.372;2022-12-18T05:05:14;8.98;;;5.88;;
11677;SDS011;5895;41.950;24.372;2022-12-18T05:07:42;11.65;;;5.90;;
11677;SDS011;5895;41.950;24.372;2022-12-18T05:10:09;10.50;;;6.78;;
11677;SDS011;5895;41.950;24.372;2022-12-18T05:12:37;9.05;;;7.53;;
11677;SDS011;5895;41.950;24.372;2022-12-18T05:15:23;12.30;;;9.15;;
11677;SDS011;5895;41.950;24.372;2022-12-18T05:17:51;12.10;;;9.57;;
11677;SDS011;5895;41.950;24.372;2022-12-18T05:20:20;24.77;;;13.48;;
11677;SDS011;5895;41.950;24.372;2022-12-18T05:22:48;12.35;;;8.25;;
11677;SDS011;5895;41.950;24.372;2022-12-18T05:25:15;15.50;;;7.18;;
11677;SDS011;5895;41.950;24.372;2022-12-18T05:27:43;18.25;;;8.30;;
11677;SDS011;5895;41.950;24.372;2022-12-18T05:30:11;13.23;;;7.05;;
11677;SDS011;5895;41.950;24.372;2022-12-18T05:32:39;13.85;;;7.25;;
11677;SDS011;5895;41.950;24.372;2022-12-18T05:35:07;16.10;;;7.72;;
11677;SDS011;5895;41.950;24.372;2022-12-18T05:37:38;14.10;;;8.13;;
11677;SDS011;5895;41.950;24.372;2022-12-18T05:40:06;11.10;;;7.97;;
11677;SDS011;5895;41.950;24.372;2022-12-18T05:42:34;8.35;;;7.03;;
11677;SDS011;5895;41.950;24.372;2022-12-18T05:45:02;15.18;;;8.40;;
11677;SDS011;5895;41.950;24.372;2022-12-18T05:47:30;15.18;;;8.63;;
11677;SDS011;5895;41.950;24.372;2022-12-18T05:49:57;14.20;;;8.13;;
11677;SDS011;5895;41.950;24.372;2022-12-18T05:52:25;21.67;;;11.63;;
11677;SDS011;5895;41.950;24.372;2022-12-18T05:54:54;15.95;;;10.38;;
11677;SDS011;5895;41.950;24.372;2022-12-18T05:57:21;17.45;;;12.80;;
11677;SDS011;5895;41.950;24.372;2022-12-18T05:59:49;19.00;;;17.00;;
11677;SDS011;5895;41.950;24.372;2022-12-18T06:02:16;16.38;;;14.68;;
11677;SDS011;5895;41.950;24.372;2022-12-18T06:04:46;17.75;;;14.85;;
11677;SDS011;5895;41.950;24.372;2022-12-18T06:07:13;15.57;;;13.68;;
11677;SDS011;5895;41.950;24.372;2022-12-18T06:09:41;20.38;;;14.45;;
11677;SDS011;5895;41.950;24.372;2022-12-18T06:12:10;20.48;;;16.05;;
11677;SDS011;5895;41.950;24.372;2022-12-18T06:14:37;24.90;;;18.10;;
11677;SDS011;5895;41.950;24.372;2022-12-18T06:17:05;21.98;;;18.95;;
11677;SDS011;5895;41.950;24.372;2022-12-18T06:19:32;18.33;;;15.57;;
11677;SDS011;5895;41.950;24.372;2022-12-18T06:22:00;16.90;;;14.65;;
11677;SDS011;5895;41.950;24.372;2022-12-18T06:24:27;16.52;;;13.70;;
11677;SDS011;5895;41.950;24.372;2022-12-18T06:26:55;15.50;;;13.90;;
11677;SDS011;5895;41.950;24.372;2022-12-18T06:29:24;17.67;;;13.43;;
11677;SDS011;5895;41.950;24.372;2022-12-18T06:31:53;17.40;;;12.57;;
11677;SDS011;5895;41.950;24.372;2022-12-18T06:34:21;13.73;;;12.07;;
11677;SDS011;5895;41.950;24.372;2022-12-18T06:36:48;14.07;;;12.57;;
11677;SDS011;5895;41.950;24.372;2022-12-18T06:39:16;14.95;;;12.73;;
11677;SDS011;5895;41.950;24.372;2022-12-18T06:41:43;16.20;;;14.10;;
11677;SDS011;5895;41.950;24.372;2022-12-18T06:44:10;16.40;;;14.50;;
11677;SDS011;5895;41.950;24.372;2022-12-18T06:46:39;16.52;;;14.57;;
11677;SDS011;5895;41.950;24.372;2022-12-18T06:49:07;16.25;;;14.43;;
11677;SDS011;5895;41.950;24.372;2022-12-18T06:51:35;15.73;;;11.77;;
11677;SDS011;5895;41.950;24.372;2022-12-18T06:54:03;15.57;;;12.30;;
11677;SDS011;5895;41.950;24.372;2022-12-18T06:56:30;19.48;;;14.57;;
11677;SDS011;5895;41.950;24.372;2022-12-18T06:58:58;16.55;;;12.55;;
11677;SDS011;5895;41.950;24.372;2022-12-18T07:01:25;15.90;;;12.48;;
11677;SDS011;5895;41.950;24.372;2022-12-18T07:03:55;17.45;;;13.25;;
11677;SDS011;5895;41.950;24.372;2022-12-18T07:06:24;20.40;;;12.63;;
11677;SDS011;5895;41.950;24.372;2022-12-18T07:08:52;15.40;;;12.35;;
11677;SDS011;5895;41.950;24.372;2022-12-18T07:11:21;29.75;;;19.95;;
11677;SDS011;5895;41.950;24.372;2022-12-18T07:13:48;21.42;;;14.20;;
11677;SDS011;5895;41.950;24.372;2022-12-18T07:16:16;38.75;;;18.17;;
11677;SDS011;5895;41.950;24.372;2022-12-18T07:18:45;72.47;;;21.50;;
11677;SDS011;5895;41.950;24.372;2022-12-18T07:21:15;64.57;;;22.38;;
11677;SDS011;5895;41.950;24.372;2022-12-18T07:23:44;42.72;;;19.38;;
11677;SDS011;5895;41.950;24.372;2022-12-18T07:26:13;36.92;;;20.40;;
11677;SDS011;5895;41.950;24.372;2022-12-18T07:28:43;40.15;;;17.92;;
11677;SDS011;5895;41.950;24.372;2022-12-18T07:31:12;72.97;;;18.63;;
11677;SDS011;5895;41.950;24.372;2022-12-18T07:33:41;111.95;;;19.00;;
11677;SDS011;5895;41.950;24.372;2022-12-18T07:36:09;62.40;;;15.38;;
11677;SDS011;5895;41.950;24.372;2022-12-18T07:38:39;27.58;;;12.75;;
11677;SDS011;5895;41.950;24.372;2022-12-18T07:41:07;118.32;;;16.48;;
11677;SDS011;5895;41.950;24.372;2022-12-18T07:43:36;100.07;;;14.02;;
11677;SDS011;5895;41.950;24.372;2022-12-18T07:46:04;135.25;;;15.05;;
11677;SDS011;5895;41.950;24.372;2022-12-18T07:48:32;151.13;;;16.90;;
11677;SDS011;5895;41.950;24.372;2022-12-18T07:51:00;84.05;;;17.70;;
11677;SDS011;5895;41.950;24.372;2022-12-18T07:53:28;66.95;;;13.63;;
11677;SDS011;5895;41.950;24.372;2022-12-18T07:55:57;75.53;;;11.80;;
11677;SDS011;5895;41.950;24.372;2022-12-18T07:58:25;24.67;;;11.18;;
11677;SDS011;5895;41.950;24.372;2022-12-18T08:00:53;97.85;;;9.50;;
11677;SDS011;5895;41.950;24.372;2022-12-18T08:03:20;31.33;;;9.10;;
11677;SDS011;5895;41.950;24.372;2022-12-18T08:05:47;41.83;;;9.07;;
11677;SDS011;5895;41.950;24.372;2022-12-18T08:08:15;31.73;;;8.95;;
11677;SDS011;5895;41.950;24.372;2022-12-18T08:10:43;72.72;;;10.80;;
11677;SDS011;5895;41.950;24.372;2022-12-18T08:13:12;52.50;;;9.32;;
11677;SDS011;5895;41.950;24.372;2022-12-18T08:15:39;174.13;;;12.93;;
11677;SDS011;5895;41.950;24.372;2022-12-18T08:18:06;24.98;;;10.50;;
11677;SDS011;5895;41.950;24.372;2022-12-18T08:20:34;120.60;;;12.60;;
11677;SDS011;5895;41.950;24.372;2022-12-18T08:23:02;22.10;;;9.68;;
11677;SDS011;5895;41.950;24.372;2022-12-18T08:25:29;38.17;;;11.85;;
11677;SDS011;5895;41.950;24.372;2022-12-18T08:27:57;52.42;;;8.45;;
11677;SDS011;5895;41.950;24.372;2022-12-18T08:30:26;60.78;;;9.05;;
11677;SDS011;5895;41.950;24.372;2022-12-18T08:32:53;80.65;;;8.52;;
11677;SDS011;5895;41.950;24.372;2022-12-18T08:35:21;117.85;;;11.77;;
11677;SDS011;5895;41.950;24.372;2022-12-18T08:37:51;91.10;;;11.60;;
11677;SDS011;5895;41.950;24.372;2022-12-18T08:40:19;17.88;;;10.57;;
11677;SDS011;5895;41.950;24.372;2022-12-18T08:42:46;15.73;;;9.85;;
11677;SDS011;5895;41.950;24.372;2022-12-18T08:45:33;57.53;;;11.20;;
11677;SDS011;5895;41.950;24.372;2022-12-18T08:48:01;59.90;;;7.85;;
11677;SDS011;5895;41.950;24.372;2022-12-18T08:50:28;16.08;;;7.28;;
11677;SDS011;5895;41.950;24.372;2022-12-18T08:52:55;10.95;;;6.85;;
11677;SDS011;5895;41.950;24.372;2022-12-18T08:55:23;21.63;;;7.32;;
11677;SDS011;5895;41.950;24.372;2022-12-18T08:57:50;27.25;;;7.60;;
11677;SDS011;5895;41.950;24.372;2022-12-18T09:00:18;19.77;;;9.02;;
11677;SDS011;5895;41.950;24.372;2022-12-18T09:02:47;29.17;;;9.63;;
11677;SDS011;5895;41.950;24.372;2022-12-18T09:05:15;44.13;;;12.10;;
11677;SDS011;5895;41.950;24.372;2022-12-18T09:07:42;34.78;;;11.75;;
11677;SDS011;5895;41.950;24.372;2022-12-18T09:10:10;72.53;;;12.38;;
11677;SDS011;5895;41.950;24.372;2022-12-18T09:12:37;26.02;;;12.00;;
11677;SDS011;5895;41.950;24.372;2022-12-18T09:15:05;27.80;;;12.18;;
11677;SDS011;5895;41.950;24.372;2022-12-18T09:17:33;22.60;;;12.15;;
11677;SDS011;5895;41.950;24.372;2022-12-18T09:20:02;15.02;;;10.93;;
11677;SDS011;5895;41.950;24.372;2022-12-18T09:22:30;16.83;;;11.48;;
11677;SDS011;5895;41.950;24.372;2022-12-18T09:24:58;16.10;;;10.70;;
11677;SDS011;5895;41.950;24.372;2022-12-18T09:27:25;13.23;;;9.55;;
11677;SDS011;5895;41.950;24.372;2022-12-18T09:29:52;12.80;;;9.35;;
11677;SDS011;5895;41.950;24.372;2022-12-18T09:32:20;13.93;;;9.48;;
11677;SDS011;5895;41.950;24.372;2022-12-18T09:34:48;15.60;;;10.38;;
11677;SDS011;5895;41.950;24.372;2022-12-18T09:37:17;11.85;;;9.32;;
11677;SDS011;5895;41.950;24.372;2022-12-18T09:39:45;18.80;;;10.90;;
11677;SDS011;5895;41.950;24.372;2022-12-18T09:42:13;15.52;;;9.32;;
11677;SDS011;5895;41.950;24.372;2022-12-18T09:44:48;22.42;;;12.13;;
11677;SDS011;5895;41.950;24.372;2022-12-18T09:47:18;17.95;;;10.23;;
11677;SDS011;5895;41.950;24.372;2022-12-18T09:49:50;10.65;;;8.88;;
11677;SDS011;5895;41.950;24.372;2022-12-18T09:52:23;117.93;;;12.40;;
11677;SDS011;5895;41.950;24.372;2022-12-18T09:54:56;130.32;;;16.20;;
11677;SDS011;5895;41.950;24.372;2022-12-18T09:57:29;17.42;;;10.63;;
11677;SDS011;5895;41.950;24.372;2022-12-18T10:00:04;15.27;;;8.82;;
11677;SDS011;5895;41.950;24.372;2022-12-18T10:02:38;11.57;;;10.30;;
11677;SDS011;5895;41.950;24.372;2022-12-18T10:05:06;35.92;;;10.20;;
11677;SDS011;5895;41.950;24.372;2022-12-18T10:07:43;32.22;;;13.75;;
11677;SDS011;5895;41.950;24.372;2022-12-18T10:10:26;12.80;;;10.10;;
11677;SDS011;5895;41.950;24.372;2022-12-18T10:13:00;13.25;;;9.43;;
11677;SDS011;5895;41.950;24.372;2022-12-18T10:15:35;13.85;;;9.40;;
11677;SDS011;5895;41.950;24.372;2022-12-18T10:18:12;11.88;;;8.10;;
11677;SDS011;5895;41.950;24.372;2022-12-18T10:20:48;11.05;;;8.30;;
11677;SDS011;5895;41.950;24.372;2022-12-18T10:23:21;12.25;;;8.60;;
11677;SDS011;5895;41.950;24.372;2022-12-18T10:25:55;12.27;;;8.02;;
11677;SDS011;5895;41.950;24.372;2022-12-18T10:28:33;10.48;;;7.68;;
11677;SDS011;5895;41.950;24.372;2022-12-18T10:31:05;14.98;;;8.35;;
11677;SDS011;5895;41.950;24.372;2022-12-18T10:33:33;13.57;;;8.38;;
11677;SDS011;5895;41.950;24.372;2022-12-18T10:36:00;8.50;;;7.13;;
11677;SDS011;5895;41.950;24.372;2022-12-18T10:38:30;9.88;;;7.90;;
11677;SDS011;5895;41.950;24.372;2022-12-18T10:40:59;8.07;;;7.15;;
11677;SDS011;5895;41.950;24.372;2022-12-18T10:43:28;9.65;;;6.88;;
11677;SDS011;5895;41.950;24.372;2022-12-18T10:45:59;10.63;;;6.65;;
11677;SDS011;5895;41.950;24.372;2022-12-18T10:48:28;10.77;;;6.28;;
11677;SDS011;5895;41.950;24.372;2022-12-18T10:50:57;8.40;;;6.63;;
11677;SDS011;5895;41.950;24.372;2022-12-18T10:53:25;7.03;;;6.32;;
11677;SDS011;5895;41.950;24.372;2022-12-18T10:55:56;13.07;;;7.40;;
11677;SDS011;5895;41.950;24.372;2022-12-18T10:58:26;10.15;;;6.10;;
11677;SDS011;5895;41.950;24.372;2022-12-18T11:01:07;8.38;;;5.72;;
11677;SDS011;5895;41.950;24.372;2022-12-18T11:03:37;10.85;;;6.65;;
11677;SDS011;5895;41.950;24.372;2022-12-18T11:06:07;5.78;;;5.18;;
11677;SDS011;5895;41.950;24.372;2022-12-18T11:08:36;7.28;;;6.53;;
11677;SDS011;5895;41.950;24.372;2022-12-18T11:11:14;7.55;;;6.20;;
11677;SDS011;5895;41.950;24.372;2022-12-18T11:13:48;9.80;;;6.47;;
11677;SDS011;5895;41.950;24.372;2022-12-18T11:16:26;7.57;;;6.00;;
11677;SDS011;5895;41.950;24.372;2022-12-18T11:18:54;7.03;;;6.32;;
11677;SDS011;5895;41.950;24.372;2022-12-18T11:21:38;10.25;;;7.68;;
11677;SDS011;5895;41.950;24.372;2022-12-18T11:24:07;9.00;;;5.97;;
11677;SDS011;5895;41.950;24.372;2022-12-18T11:26:47;6.75;;;5.35;;
11677;SDS011;5895;41.950;24.372;2022-12-18T11:29:16;7.75;;;5.78;;
11677;SDS011;5895;41.950;24.372;2022-12-18T11:31:44;6.95;;;5.53;;
11677;SDS011;5895;41.950;24.372;2022-12-18T11:34:13;6.15;;;5.55;;
11677;SDS011;5895;41.950;24.372;2022-12-18T11:36:47;9.57;;;7.40;;
11677;SDS011;5895;41.950;24.372;2022-12-18T11:39:16;18.40;;;14.85;;
11677;SDS011;5895;41.950;24.372;2022-12-18T11:41:50;10.52;;;9.43;;
11677;SDS011;5895;41.950;24.372;2022-12-18T11:44:39;7.97;;;6.78;;
11677;SDS011;5895;41.950;24.372;2022-12-18T11:47:13;6.60;;;5.95;;
11677;SDS011;5895;41.950;24.372;2022-12-18T11:49:49;7.80;;;5.95;;
11677;SDS011;5895;41.950;24.372;2022-12-18T11:52:18;8.00;;;5.50;;
11677;SDS011;5895;41.950;24.372;2022-12-18T11:54:51;5.30;;;4.88;;
11677;SDS011;5895;41.950;24.372;2022-12-18T11:57:24;6.75;;;5.60;;
11677;SDS011;5895;41.950;24.372;2022-12-18T12:00:02;6.03;;;4.75;;
11677;SDS011;5895;41.950;24.372;2022-12-18T12:02:42;7.28;;;5.68;;
11677;SDS011;5895;41.950;24.372;2022-12-18T12:05:37;8.50;;;6.28;;
11677;SDS011;5895;41.950;24.372;2022-12-18T12:08:15;6.65;;;5.50;;
11677;SDS011;5895;41.950;24.372;2022-12-18T12:10:53;6.43;;;5.25;;
11677;SDS011;5895;41.950;24.372;2022-12-18T12:13:34;7.35;;;5.32;;
11677;SDS011;5895;41.950;24.372;2022-12-18T12:16:13;6.32;;;5.63;;
11677;SDS011;5895;41.950;24.372;2022-12-18T12:18:51;8.98;;;5.43;;
11677;SDS011;5895;41.950;24.372;2022-12-18T12:21:28;6.75;;;6.00;;
11677;SDS011;5895;41.950;24.372;2022-12-18T12:24:04;7.90;;;5.90;;
11677;SDS011;5895;41.950;24.372;2022-12-18T12:26:46;6.85;;;6.15;;
11677;SDS011;5895;41.950;24.372;2022-12-18T12:29:30;6.55;;;5.85;;
11677;SDS011;5895;41.950;24.372;2022-12-18T12:32:07;7.70;;;6.90;;
11677;SDS011;5895;41.950;24.372;2022-12-18T12:34:50;11.77;;;8.90;;
11677;SDS011;5895;41.950;24.372;2022-12-18T12:37:36;10.15;;;6.90;;
11677;SDS011;5895;41.950;24.372;2022-12-18T12:40:13;8.25;;;5.40;;
11677;SDS011;5895;41.950;24.372;2022-12-18T12:42:47;7.53;;;5.85;;
11677;SDS011;5895;41.950;24.372;2022-12-18T12:45:38;6.65;;;5.53;;
11677;SDS011;5895;41.950;24.372;2022-12-18T12:48:15;9.95;;;6.10;;
11677;SDS011;5895;41.950;24.372;2022-12-18T12:50:46;10.18;;;7.43;;
11677;SDS011;5895;41.950;24.372;2022-12-18T12:53:18;8.07;;;6.57;;
11677;SDS011;5895;41.950;24.372;2022-12-18T12:55:53;9.85;;;6.80;;
11677;SDS011;5895;41.950;24.372;2022-12-18T12:58:25;7.75;;;6.68;;
11677;SDS011;5895;41.950;24.372;2022-12-18T13:01:01;7.50;;;6.40;;
11677;SDS011;5895;41.950;24.372;2022-12-18T13:03:41;8.98;;;6.80;;
11677;SDS011;5895;41.950;24.372;2022-12-18T13:06:18;10.23;;;7.60;;
11677;SDS011;5895;41.950;24.372;2022-12-18T13:08:55;8.75;;;6.80;;
11677;SDS011;5895;41.950;24.372;2022-12-18T13:11:37;11.80;;;9.88;;
11677;SDS011;5895;41.950;24.372;2022-12-18T13:14:24;11.73;;;9.20;;
11677;SDS011;5895;41.950;24.372;2022-12-18T13:19:43;10.70;;;9.07;;
11677;SDS011;5895;41.950;24.372;2022-12-18T13:22:20;15.93;;;11.85;;
11677;SDS011;5895;41.950;24.372;2022-12-18T13:24:49;15.45;;;10.77;;
11677;SDS011;5895;41.950;24.372;2022-12-18T13:30:42;7.50;;;6.03;;
11677;SDS011;5895;41.950;24.372;2022-12-18T13:36:12;9.27;;;6.57;;
11677;SDS011;5895;41.950;24.372;2022-12-18T13:38:42;7.85;;;6.65;;
11677;SDS011;5895;41.950;24.372;2022-12-18T13:41:22;8.70;;;6.43;;
11677;SDS011;5895;41.950;24.372;2022-12-18T13:43:53;10.38;;;6.75;;
11677;SDS011;5895;41.950;24.372;2022-12-18T13:46:24;8.35;;;5.75;;
11677;SDS011;5895;41.950;24.372;2022-12-18T13:48:57;7.07;;;6.43;;
11677;SDS011;5895;41.950;24.372;2022-12-18T13:51:29;7.85;;;7.05;;
11677;SDS011;5895;41.950;24.372;2022-12-18T13:53:59;8.10;;;6.38;;
11677;SDS011;5895;41.950;24.372;2022-12-18T13:56:28;7.78;;;7.00;;
11677;SDS011;5895;41.950;24.372;2022-12-18T13:59:17;9.40;;;8.50;;
11677;SDS011;5895;41.950;24.372;2022-12-18T14:01:47;10.38;;;9.38;;
11677;SDS011;5895;41.950;24.372;2022-12-18T14:04:23;9.63;;;8.70;;
11677;SDS011;5895;41.950;24.372;2022-12-18T14:06:54;10.23;;;8.60;;
11677;SDS011;5895;41.950;24.372;2022-12-18T14:09:25;9.98;;;8.98;;
11677;SDS011;5895;41.950;24.372;2022-12-18T14:11:55;11.18;;;9.05;;
11677;SDS011;5895;41.950;24.372;2022-12-18T14:14:37;9.95;;;8.93;;
11677;SDS011;5895;41.950;24.372;2022-12-18T14:17:09;7.85;;;7.13;;
11677;SDS011;5895;41.950;24.372;2022-12-18T14:19:42;8.60;;;7.72;;
11677;SDS011;5895;41.950;24.372;2022-12-18T14:22:15;6.22;;;5.68;;
11677;SDS011;5895;41.950;24.372;2022-12-18T14:24:44;6.55;;;5.93;;
11677;SDS011;5895;41.950;24.372;2022-12-18T14:27:13;7.68;;;6.85;;
11677;SDS011;5895;41.950;24.372;2022-12-18T14:29:47;8.60;;;7.70;;
11677;SDS011;5895;41.950;24.372;2022-12-18T14:32:15;18.67;;;6.60;;
11677;SDS011;5895;41.950;24.372;2022-12-18T14:34:46;7.57;;;6.88;;
11677;SDS011;5895;41.950;24.372;2022-12-18T14:37:16;9.95;;;6.93;;
11677;SDS011;5895;41.950;24.372;2022-12-18T14:39:54;8.00;;;7.20;;
11677;SDS011;5895;41.950;24.372;2022-12-18T14:42:23;7.30;;;6.60;;
11677;SDS011;5895;41.950;24.372;2022-12-18T14:47:53;5.55;;;5.03;;
11677;SDS011;5895;41.950;24.372;2022-12-18T14:50:22;6.00;;;5.40;;
11677;SDS011;5895;41.950;24.372;2022-12-18T14:52:50;8.23;;;5.13;;
11677;SDS011;5895;41.950;24.372;2022-12-18T14:55:18;5.40;;;4.55;;
11677;SDS011;5895;41.950;24.372;2022-12-18T14:57:48;4.30;;;3.90;;
11677;SDS011;5895;41.950;24.372;2022-12-18T15:00:19;4.35;;;3.95;;
11677;SDS011;5895;41.950;24.372;2022-12-18T15:02:48;4.82;;;4.32;;
11677;SDS011;5895;41.950;24.372;2022-12-18T15:05:20;5.82;;;4.75;;
11677;SDS011;5895;41.950;24.372;2022-12-18T15:07:52;7.10;;;5.80;;
11677;SDS011;5895;41.950;24.372;2022-12-18T15:10:21;7.63;;;5.60;;
11677;SDS011;5895;41.950;24.372;2022-12-18T15:12:50;6.00;;;5.40;;